sensor_id;sensor_type;location;lat;lon;timestamp;P1;durP1;ratioP1;P2;durP2;ratioP2
22287;SDS011;11312;51.464;6.968;2023-03-01T00:01:22;7.20;;;2.88;;
22287;SDS011;11312;51.464;6.968;2023-03-01T00:03:50;8.68;;;3.72;;
22287;SDS011;11312;51.464;6.968;2023-03-01T00:06:16;7.97;;;3.35;;
22287;SDS011;11312;51.464;6.968;2023-03-01T00:08:41;8.15;;;3.17;;
22287;SDS011;11312;51.464;6.968;2023-03-01T00:13:50;7.95;;;3.42;;
22287;SDS011;11312;51.464;6.968;2023-03-01T00:16:20;8.13;;;3.17;;
22287;SDS011;11312;51.464;6.968;2023-03-01T00:18:53;7.93;;;3.10;;
22287;SDS011;11312;51.464;6.968;2023-03-01T00:21:20;7.35;;;2.90;;
22287;SDS011;11312;51.464;6.968;2023-03-01T00:23:47;7.85;;;3.42;;
22287;SDS011;11312;51.464;6.968;2023-03-01T00:26:13;9.35;;;3.20;;
22287;SDS011;11312;51.464;6.968;2023-03-01T00:28:41;7.90;;;3.08;;
22287;SDS011;11312;51.464;6.968;2023-03-01T00:31:10;8.82;;;3.47;;
22287;SDS011;11312;51.464;6.968;2023-03-01T00:33:38;8.63;;;3.40;;
22287;SDS011;11312;51.464;6.968;2023-03-01T00:36:04;8.35;;;3.55;;
22287;SDS011;11312;51.464;6.968;2023-03-01T00:38:34;8.18;;;3.22;;
22287;SDS011;11312;51.464;6.968;2023-03-01T00:41:08;7.32;;;3.05;;
22287;SDS011;11312;51.464;6.968;2023-03-01T00:43:43;8.20;;;3.33;;
22287;SDS011;11312;51.464;6.968;2023-03-01T00:46:10;8.02;;;3.35;;
22287;SDS011;11312;51.464;6.968;2023-03-01T00:48:38;7.55;;;3.15;;
22287;SDS011;11312;51.464;6.968;2023-03-01T00:51:06;7.75;;;3.00;;
22287;SDS011;11312;51.464;6.968;2023-03-01T00:53:34;8.13;;;3.30;;
22287;SDS011;11312;51.464;6.968;2023-03-01T00:56:00;8.27;;;3.72;;
22287;SDS011;11312;51.464;6.968;2023-03-01T00:58:26;9.48;;;4.20;;
22287;SDS011;11312;51.464;6.968;2023-03-01T01:00:51;9.23;;;3.45;;
22287;SDS011;11312;51.464;6.968;2023-03-01T01:03:17;7.85;;;3.05;;
22287;SDS011;11312;51.464;6.968;2023-03-01T01:05:44;7.55;;;3.17;;
22287;SDS011;11312;51.464;6.968;2023-03-01T01:08:09;9.30;;;3.60;;
22287;SDS011;11312;51.464;6.968;2023-03-01T01:10:35;8.02;;;3.25;;
22287;SDS011;11312;51.464;6.968;2023-03-01T01:13:01;8.10;;;3.33;;
22287;SDS011;11312;51.464;6.968;2023-03-01T01:15:26;8.88;;;4.18;;
22287;SDS011;11312;51.464;6.968;2023-03-01T01:17:52;8.40;;;3.55;;
22287;SDS011;11312;51.464;6.968;2023-03-01T01:20:18;8.00;;;3.28;;
22287;SDS011;11312;51.464;6.968;2023-03-01T01:22:43;8.43;;;3.42;;
22287;SDS011;11312;51.464;6.968;2023-03-01T01:25:09;8.60;;;3.30;;
22287;SDS011;11312;51.464;6.968;2023-03-01T01:27:35;7.72;;;3.20;;
22287;SDS011;11312;51.464;6.968;2023-03-01T01:30:01;9.35;;;3.88;;
22287;SDS011;11312;51.464;6.968;2023-03-01T01:32:28;19.60;;;4.25;;
22287;SDS011;11312;51.464;6.968;2023-03-01T01:34:54;9.27;;;3.90;;
22287;SDS011;11312;51.464;6.968;2023-03-01T01:37:19;13.80;;;4.95;;
22287;SDS011;11312;51.464;6.968;2023-03-01T01:39:45;8.50;;;3.38;;
22287;SDS011;11312;51.464;6.968;2023-03-01T01:42:15;10.88;;;4.15;;
22287;SDS011;11312;51.464;6.968;2023-03-01T01:44:44;9.60;;;4.10;;
22287;SDS011;11312;51.464;6.968;2023-03-01T01:47:16;8.18;;;3.53;;
22287;SDS011;11312;51.464;6.968;2023-03-01T01:49:52;8.57;;;4.03;;
22287;SDS011;11312;51.464;6.968;2023-03-01T01:52:22;8.35;;;3.70;;
22287;SDS011;11312;51.464;6.968;2023-03-01T01:57:36;8.75;;;3.67;;
22287;SDS011;11312;51.464;6.968;2023-03-01T02:00:06;8.77;;;3.42;;
22287;SDS011;11312;51.464;6.968;2023-03-01T02:02:34;8.20;;;3.35;;
22287;SDS011;11312;51.464;6.968;2023-03-01T02:05:03;8.32;;;3.30;;
22287;SDS011;11312;51.464;6.968;2023-03-01T02:07:52;7.78;;;3.10;;
22287;SDS011;11312;51.464;6.968;2023-03-01T02:10:19;8.35;;;3.58;;
22287;SDS011;11312;51.464;6.968;2023-03-01T02:12:45;10.10;;;4.40;;
22287;SDS011;11312;51.464;6.968;2023-03-01T02:15:11;8.98;;;3.92;;
22287;SDS011;11312;51.464;6.968;2023-03-01T02:17:37;9.25;;;3.92;;
22287;SDS011;11312;51.464;6.968;2023-03-01T02:20:06;8.55;;;3.60;;
22287;SDS011;11312;51.464;6.968;2023-03-01T02:22:52;8.48;;;3.53;;
22287;SDS011;11312;51.464;6.968;2023-03-01T02:25:27;9.85;;;3.90;;
22287;SDS011;11312;51.464;6.968;2023-03-01T02:30:32;8.18;;;3.28;;
22287;SDS011;11312;51.464;6.968;2023-03-01T02:32:58;9.73;;;4.28;;
22287;SDS011;11312;51.464;6.968;2023-03-01T02:35:29;7.82;;;3.17;;
22287;SDS011;11312;51.464;6.968;2023-03-01T02:37:57;8.60;;;3.70;;
22287;SDS011;11312;51.464;6.968;2023-03-01T02:40:25;8.13;;;3.42;;
22287;SDS011;11312;51.464;6.968;2023-03-01T02:42:55;9.60;;;4.10;;
22287;SDS011;11312;51.464;6.968;2023-03-01T02:45:23;8.93;;;3.63;;
22287;SDS011;11312;51.464;6.968;2023-03-01T02:47:50;8.02;;;3.17;;
22287;SDS011;11312;51.464;6.968;2023-03-01T02:55:57;8.98;;;3.83;;
22287;SDS011;11312;51.464;6.968;2023-03-01T02:58:24;8.80;;;3.53;;
22287;SDS011;11312;51.464;6.968;2023-03-01T03:00:49;9.05;;;3.78;;
22287;SDS011;11312;51.464;6.968;2023-03-01T03:03:19;8.52;;;3.60;;
22287;SDS011;11312;51.464;6.968;2023-03-01T03:05:46;8.93;;;3.70;;
22287;SDS011;11312;51.464;6.968;2023-03-01T03:08:13;7.97;;;3.20;;
22287;SDS011;11312;51.464;6.968;2023-03-01T03:10:41;9.70;;;3.97;;
22287;SDS011;11312;51.464;6.968;2023-03-01T03:13:11;7.47;;;2.95;;
22287;SDS011;11312;51.464;6.968;2023-03-01T03:15:38;9.50;;;4.43;;
22287;SDS011;11312;51.464;6.968;2023-03-01T03:18:06;8.88;;;3.95;;
22287;SDS011;11312;51.464;6.968;2023-03-01T03:20:34;9.25;;;4.20;;
22287;SDS011;11312;51.464;6.968;2023-03-01T03:23:04;9.70;;;4.47;;
22287;SDS011;11312;51.464;6.968;2023-03-01T03:25:30;8.48;;;3.53;;
22287;SDS011;11312;51.464;6.968;2023-03-01T03:27:56;8.60;;;3.33;;
22287;SDS011;11312;51.464;6.968;2023-03-01T03:30:26;9.85;;;4.55;;
22287;SDS011;11312;51.464;6.968;2023-03-01T03:32:55;8.43;;;3.85;;
22287;SDS011;11312;51.464;6.968;2023-03-01T03:35:25;9.18;;;3.35;;
22287;SDS011;11312;51.464;6.968;2023-03-01T03:37:56;7.53;;;3.17;;
22287;SDS011;11312;51.464;6.968;2023-03-01T03:40:27;8.95;;;3.58;;
22287;SDS011;11312;51.464;6.968;2023-03-01T03:43:39;8.45;;;3.63;;
22287;SDS011;11312;51.464;6.968;2023-03-01T03:45:58;8.20;;;3.40;;
22287;SDS011;11312;51.464;6.968;2023-03-01T03:48:24;8.68;;;3.90;;
22287;SDS011;11312;51.464;6.968;2023-03-01T03:50:51;7.95;;;3.20;;
22287;SDS011;11312;51.464;6.968;2023-03-01T03:53:18;10.00;;;4.40;;
22287;SDS011;11312;51.464;6.968;2023-03-01T03:55:45;8.55;;;3.78;;
22287;SDS011;11312;51.464;6.968;2023-03-01T03:58:14;9.55;;;3.53;;
22287;SDS011;11312;51.464;6.968;2023-03-01T04:00:42;9.25;;;3.88;;
22287;SDS011;11312;51.464;6.968;2023-03-01T04:03:09;9.15;;;3.60;;
22287;SDS011;11312;51.464;6.968;2023-03-01T04:05:38;8.38;;;3.28;;
22287;SDS011;11312;51.464;6.968;2023-03-01T04:08:04;9.15;;;4.15;;
22287;SDS011;11312;51.464;6.968;2023-03-01T04:10:33;8.25;;;3.28;;
22287;SDS011;11312;51.464;6.968;2023-03-01T04:13:01;12.82;;;4.15;;
22287;SDS011;11312;51.464;6.968;2023-03-01T04:15:28;8.45;;;3.53;;
22287;SDS011;11312;51.464;6.968;2023-03-01T04:17:53;8.85;;;3.55;;
22287;SDS011;11312;51.464;6.968;2023-03-01T04:20:21;7.93;;;3.08;;
22287;SDS011;11312;51.464;6.968;2023-03-01T04:25:24;8.60;;;3.58;;
22287;SDS011;11312;51.464;6.968;2023-03-01T04:27:50;8.68;;;3.42;;
22287;SDS011;11312;51.464;6.968;2023-03-01T04:30:16;8.18;;;3.38;;
22287;SDS011;11312;51.464;6.968;2023-03-01T04:32:41;8.38;;;3.35;;
22287;SDS011;11312;51.464;6.968;2023-03-01T04:35:07;7.82;;;3.30;;
22287;SDS011;11312;51.464;6.968;2023-03-01T04:37:33;8.82;;;3.53;;
22287;SDS011;11312;51.464;6.968;2023-03-01T04:40:00;8.82;;;3.75;;
22287;SDS011;11312;51.464;6.968;2023-03-01T04:42:40;9.25;;;3.83;;
22287;SDS011;11312;51.464;6.968;2023-03-01T04:45:07;8.63;;;3.90;;
22287;SDS011;11312;51.464;6.968;2023-03-01T04:47:41;10.35;;;4.70;;
22287;SDS011;11312;51.464;6.968;2023-03-01T04:50:10;8.15;;;3.25;;
22287;SDS011;11312;51.464;6.968;2023-03-01T04:52:37;8.88;;;4.03;;
22287;SDS011;11312;51.464;6.968;2023-03-01T04:55:03;9.02;;;3.78;;
22287;SDS011;11312;51.464;6.968;2023-03-01T04:57:29;9.02;;;3.67;;
22287;SDS011;11312;51.464;6.968;2023-03-01T04:59:55;9.05;;;3.83;;
22287;SDS011;11312;51.464;6.968;2023-03-01T05:02:21;8.43;;;3.55;;
22287;SDS011;11312;51.464;6.968;2023-03-01T05:04:47;8.20;;;3.53;;
22287;SDS011;11312;51.464;6.968;2023-03-01T05:07:12;10.65;;;4.53;;
22287;SDS011;11312;51.464;6.968;2023-03-01T05:09:44;8.65;;;3.75;;
22287;SDS011;11312;51.464;6.968;2023-03-01T05:12:13;8.50;;;3.47;;
22287;SDS011;11312;51.464;6.968;2023-03-01T05:14:40;8.43;;;3.30;;
22287;SDS011;11312;51.464;6.968;2023-03-01T05:17:06;9.10;;;3.72;;
22287;SDS011;11312;51.464;6.968;2023-03-01T05:19:32;8.07;;;3.28;;
22287;SDS011;11312;51.464;6.968;2023-03-01T05:21:58;8.93;;;3.72;;
22287;SDS011;11312;51.464;6.968;2023-03-01T05:24:27;9.98;;;3.97;;
22287;SDS011;11312;51.464;6.968;2023-03-01T05:26:54;8.93;;;3.75;;
22287;SDS011;11312;51.464;6.968;2023-03-01T05:29:21;9.13;;;4.22;;
22287;SDS011;11312;51.464;6.968;2023-03-01T05:31:59;9.52;;;4.45;;
22287;SDS011;11312;51.464;6.968;2023-03-01T05:34:32;9.40;;;3.95;;
22287;SDS011;11312;51.464;6.968;2023-03-01T05:37:00;8.93;;;3.97;;
22287;SDS011;11312;51.464;6.968;2023-03-01T05:39:26;11.63;;;4.63;;
22287;SDS011;11312;51.464;6.968;2023-03-01T05:41:53;11.55;;;5.20;;
22287;SDS011;11312;51.464;6.968;2023-03-01T05:44:21;9.68;;;4.70;;
22287;SDS011;11312;51.464;6.968;2023-03-01T05:46:47;9.35;;;4.10;;
22287;SDS011;11312;51.464;6.968;2023-03-01T05:49:13;9.05;;;3.92;;
22287;SDS011;11312;51.464;6.968;2023-03-01T05:51:42;9.50;;;4.15;;
22287;SDS011;11312;51.464;6.968;2023-03-01T05:54:12;9.00;;;3.78;;
22287;SDS011;11312;51.464;6.968;2023-03-01T05:56:37;9.02;;;3.88;;
22287;SDS011;11312;51.464;6.968;2023-03-01T05:59:03;9.02;;;4.25;;
22287;SDS011;11312;51.464;6.968;2023-03-01T06:01:33;9.00;;;3.85;;
22287;SDS011;11312;51.464;6.968;2023-03-01T06:03:59;8.43;;;3.65;;
22287;SDS011;11312;51.464;6.968;2023-03-01T06:06:25;8.43;;;3.67;;
22287;SDS011;11312;51.464;6.968;2023-03-01T06:08:51;10.05;;;4.28;;
22287;SDS011;11312;51.464;6.968;2023-03-01T06:11:18;8.07;;;3.40;;
22287;SDS011;11312;51.464;6.968;2023-03-01T06:13:44;8.38;;;3.25;;
22287;SDS011;11312;51.464;6.968;2023-03-01T06:16:11;8.15;;;3.45;;
22287;SDS011;11312;51.464;6.968;2023-03-01T06:18:37;8.70;;;3.50;;
22287;SDS011;11312;51.464;6.968;2023-03-01T06:21:04;9.18;;;3.85;;
22287;SDS011;11312;51.464;6.968;2023-03-01T06:23:30;10.32;;;4.70;;
22287;SDS011;11312;51.464;6.968;2023-03-01T06:25:56;8.88;;;3.63;;
22287;SDS011;11312;51.464;6.968;2023-03-01T06:28:22;8.52;;;3.70;;
22287;SDS011;11312;51.464;6.968;2023-03-01T06:30:49;10.35;;;4.82;;
22287;SDS011;11312;51.464;6.968;2023-03-01T06:33:15;9.40;;;4.25;;
22287;SDS011;11312;51.464;6.968;2023-03-01T06:35:41;9.05;;;4.35;;
22287;SDS011;11312;51.464;6.968;2023-03-01T06:38:06;8.93;;;3.88;;
22287;SDS011;11312;51.464;6.968;2023-03-01T06:40:32;9.75;;;4.18;;
22287;SDS011;11312;51.464;6.968;2023-03-01T06:43:00;7.13;;;2.83;;
22287;SDS011;11312;51.464;6.968;2023-03-01T06:45:26;8.50;;;3.53;;
22287;SDS011;11312;51.464;6.968;2023-03-01T06:47:51;9.02;;;3.95;;
22287;SDS011;11312;51.464;6.968;2023-03-01T06:50:17;9.07;;;3.42;;
22287;SDS011;11312;51.464;6.968;2023-03-01T06:52:43;9.45;;;4.18;;
22287;SDS011;11312;51.464;6.968;2023-03-01T06:55:10;8.40;;;3.65;;
22287;SDS011;11312;51.464;6.968;2023-03-01T06:57:36;8.40;;;3.58;;
22287;SDS011;11312;51.464;6.968;2023-03-01T07:00:05;9.32;;;4.13;;
22287;SDS011;11312;51.464;6.968;2023-03-01T07:02:31;9.35;;;4.15;;
22287;SDS011;11312;51.464;6.968;2023-03-01T07:04:57;7.97;;;3.53;;
22287;SDS011;11312;51.464;6.968;2023-03-01T07:07:23;10.77;;;4.50;;
22287;SDS011;11312;51.464;6.968;2023-03-01T07:09:49;8.65;;;4.10;;
22287;SDS011;11312;51.464;6.968;2023-03-01T07:12:15;9.15;;;4.00;;
22287;SDS011;11312;51.464;6.968;2023-03-01T07:14:41;11.60;;;5.00;;
22287;SDS011;11312;51.464;6.968;2023-03-01T07:17:08;9.38;;;4.32;;
22287;SDS011;11312;51.464;6.968;2023-03-01T07:19:34;8.98;;;4.03;;
22287;SDS011;11312;51.464;6.968;2023-03-01T07:21:59;8.45;;;3.58;;
22287;SDS011;11312;51.464;6.968;2023-03-01T07:24:25;8.27;;;3.53;;
22287;SDS011;11312;51.464;6.968;2023-03-01T07:26:51;8.45;;;3.30;;
22287;SDS011;11312;51.464;6.968;2023-03-01T07:29:18;8.73;;;3.95;;
22287;SDS011;11312;51.464;6.968;2023-03-01T07:31:44;10.23;;;4.53;;
22287;SDS011;11312;51.464;6.968;2023-03-01T07:34:10;8.93;;;3.90;;
22287;SDS011;11312;51.464;6.968;2023-03-01T07:36:36;8.48;;;3.58;;
22287;SDS011;11312;51.464;6.968;2023-03-01T07:39:02;8.55;;;3.70;;
22287;SDS011;11312;51.464;6.968;2023-03-01T07:41:28;8.60;;;3.60;;
22287;SDS011;11312;51.464;6.968;2023-03-01T07:43:54;8.75;;;3.55;;
22287;SDS011;11312;51.464;6.968;2023-03-01T07:46:20;9.57;;;4.10;;
22287;SDS011;11312;51.464;6.968;2023-03-01T07:48:46;9.82;;;4.45;;
22287;SDS011;11312;51.464;6.968;2023-03-01T07:51:12;8.70;;;3.65;;
22287;SDS011;11312;51.464;6.968;2023-03-01T07:53:37;8.40;;;3.33;;
22287;SDS011;11312;51.464;6.968;2023-03-01T07:56:12;10.13;;;3.90;;
22287;SDS011;11312;51.464;6.968;2023-03-01T07:58:40;9.70;;;4.15;;
22287;SDS011;11312;51.464;6.968;2023-03-01T08:01:08;10.15;;;4.68;;
22287;SDS011;11312;51.464;6.968;2023-03-01T08:03:36;7.78;;;3.17;;
22287;SDS011;11312;51.464;6.968;2023-03-01T08:06:03;7.97;;;3.13;;
22287;SDS011;11312;51.464;6.968;2023-03-01T08:08:30;8.52;;;3.83;;
22287;SDS011;11312;51.464;6.968;2023-03-01T08:10:57;6.85;;;2.88;;
22287;SDS011;11312;51.464;6.968;2023-03-01T08:13:23;7.55;;;3.03;;
22287;SDS011;11312;51.464;6.968;2023-03-01T08:15:49;6.10;;;2.47;;
22287;SDS011;11312;51.464;6.968;2023-03-01T08:18:16;5.22;;;2.22;;
22287;SDS011;11312;51.464;6.968;2023-03-01T08:20:42;5.28;;;2.17;;
22287;SDS011;11312;51.464;6.968;2023-03-01T08:23:08;6.13;;;2.45;;
22287;SDS011;11312;51.464;6.968;2023-03-01T08:25:34;4.90;;;2.10;;
22287;SDS011;11312;51.464;6.968;2023-03-01T08:27:59;4.28;;;1.80;;
22287;SDS011;11312;51.464;6.968;2023-03-01T08:30:25;4.95;;;2.10;;
22287;SDS011;11312;51.464;6.968;2023-03-01T08:32:51;3.08;;;1.63;;
22287;SDS011;11312;51.464;6.968;2023-03-01T08:35:17;5.45;;;2.22;;
22287;SDS011;11312;51.464;6.968;2023-03-01T08:37:44;4.78;;;2.13;;
22287;SDS011;11312;51.464;6.968;2023-03-01T08:40:10;5.13;;;2.00;;
22287;SDS011;11312;51.464;6.968;2023-03-01T08:42:38;6.88;;;2.95;;
22287;SDS011;11312;51.464;6.968;2023-03-01T08:45:05;4.95;;;2.05;;
22287;SDS011;11312;51.464;6.968;2023-03-01T08:47:32;5.93;;;2.28;;
22287;SDS011;11312;51.464;6.968;2023-03-01T08:49:58;3.95;;;1.90;;
22287;SDS011;11312;51.464;6.968;2023-03-01T08:52:25;8.40;;;2.42;;
22287;SDS011;11312;51.464;6.968;2023-03-01T08:54:50;4.00;;;1.80;;
22287;SDS011;11312;51.464;6.968;2023-03-01T08:57:16;3.75;;;1.83;;
22287;SDS011;11312;51.464;6.968;2023-03-01T08:59:42;3.60;;;1.70;;
22287;SDS011;11312;51.464;6.968;2023-03-01T09:02:11;5.53;;;2.13;;
22287;SDS011;11312;51.464;6.968;2023-03-01T09:04:38;4.82;;;1.95;;
22287;SDS011;11312;51.464;6.968;2023-03-01T09:07:04;5.15;;;2.10;;
22287;SDS011;11312;51.464;6.968;2023-03-01T09:09:29;3.95;;;1.75;;
22287;SDS011;11312;51.464;6.968;2023-03-01T09:11:55;2.40;;;1.48;;
22287;SDS011;11312;51.464;6.968;2023-03-01T09:14:20;4.47;;;1.92;;
22287;SDS011;11312;51.464;6.968;2023-03-01T09:16:46;3.30;;;1.52;;
22287;SDS011;11312;51.464;6.968;2023-03-01T09:19:12;4.13;;;2.03;;
22287;SDS011;11312;51.464;6.968;2023-03-01T09:21:38;3.67;;;1.98;;
22287;SDS011;11312;51.464;6.968;2023-03-01T09:24:04;1.73;;;1.25;;
22287;SDS011;11312;51.464;6.968;2023-03-01T09:26:29;1.98;;;1.20;;
22287;SDS011;11312;51.464;6.968;2023-03-01T09:28:55;3.95;;;1.40;;
22287;SDS011;11312;51.464;6.968;2023-03-01T09:31:21;3.65;;;1.60;;
22287;SDS011;11312;51.464;6.968;2023-03-01T09:33:49;3.92;;;1.58;;
22287;SDS011;11312;51.464;6.968;2023-03-01T09:36:17;1.67;;;1.20;;
22287;SDS011;11312;51.464;6.968;2023-03-01T09:38:44;3.10;;;1.63;;
22287;SDS011;11312;51.464;6.968;2023-03-01T09:41:11;2.28;;;1.38;;
22287;SDS011;11312;51.464;6.968;2023-03-01T09:43:57;4.25;;;1.90;;
22287;SDS011;11312;51.464;6.968;2023-03-01T09:46:37;3.72;;;1.88;;
22287;SDS011;11312;51.464;6.968;2023-03-01T09:49:11;3.88;;;2.05;;
22287;SDS011;11312;51.464;6.968;2023-03-01T09:51:42;1.95;;;1.20;;
22287;SDS011;11312;51.464;6.968;2023-03-01T09:54:15;5.10;;;1.50;;
22287;SDS011;11312;51.464;6.968;2023-03-01T10:04:33;2.60;;;1.38;;
22287;SDS011;11312;51.464;6.968;2023-03-01T10:09:42;2.45;;;1.92;;
22287;SDS011;11312;51.464;6.968;2023-03-01T10:12:30;3.47;;;1.50;;
22287;SDS011;11312;51.464;6.968;2023-03-01T10:15:19;2.88;;;1.52;;
22287;SDS011;11312;51.464;6.968;2023-03-01T10:17:56;3.88;;;1.77;;
22287;SDS011;11312;51.464;6.968;2023-03-01T10:23:08;3.33;;;1.60;;
22287;SDS011;11312;51.464;6.968;2023-03-01T10:31:24;1.48;;;1.10;;
22287;SDS011;11312;51.464;6.968;2023-03-01T10:33:53;2.95;;;1.52;;
22287;SDS011;11312;51.464;6.968;2023-03-01T10:36:20;1.90;;;1.23;;
22287;SDS011;11312;51.464;6.968;2023-03-01T10:38:49;8.25;;;1.88;;
22287;SDS011;11312;51.464;6.968;2023-03-01T10:41:17;2.05;;;1.08;;
22287;SDS011;11312;51.464;6.968;2023-03-01T10:43:56;1.95;;;1.30;;
22287;SDS011;11312;51.464;6.968;2023-03-01T10:46:30;2.42;;;1.30;;
22287;SDS011;11312;51.464;6.968;2023-03-01T10:51:44;2.08;;;1.25;;
22287;SDS011;11312;51.464;6.968;2023-03-01T10:54:33;3.58;;;1.63;;
22287;SDS011;11312;51.464;6.968;2023-03-01T10:57:01;5.47;;;2.17;;
22287;SDS011;11312;51.464;6.968;2023-03-01T10:59:33;3.13;;;1.88;;
22287;SDS011;11312;51.464;6.968;2023-03-01T11:04:34;3.33;;;1.25;;
22287;SDS011;11312;51.464;6.968;2023-03-01T11:07:01;1.27;;;1.00;;
22287;SDS011;11312;51.464;6.968;2023-03-01T11:09:30;3.70;;;1.63;;
22287;SDS011;11312;51.464;6.968;2023-03-01T11:12:03;1.20;;;0.93;;
22287;SDS011;11312;51.464;6.968;2023-03-01T11:14:38;1.95;;;1.45;;
22287;SDS011;11312;51.464;6.968;2023-03-01T11:17:24;2.63;;;1.10;;
22287;SDS011;11312;51.464;6.968;2023-03-01T11:20:15;1.77;;;1.02;;
22287;SDS011;11312;51.464;6.968;2023-03-01T11:22:54;3.17;;;1.33;;
22287;SDS011;11312;51.464;6.968;2023-03-01T11:25:43;1.17;;;0.88;;
22287;SDS011;11312;51.464;6.968;2023-03-01T11:30:53;1.77;;;1.00;;
22287;SDS011;11312;51.464;6.968;2023-03-01T11:33:38;6.20;;;1.65;;
22287;SDS011;11312;51.464;6.968;2023-03-01T11:57:18;1.40;;;0.70;;
22287;SDS011;11312;51.464;6.968;2023-03-01T12:30:21;0.30;;;0.20;;
22287;SDS011;11312;51.464;6.968;2023-03-01T12:49:18;2.08;;;0.93;;
22287;SDS011;11312;51.464;6.968;2023-03-01T12:54:35;1.73;;;0.50;;
22287;SDS011;11312;51.464;6.968;2023-03-01T12:57:14;2.28;;;0.90;;
22287;SDS011;11312;51.464;6.968;2023-03-01T13:15:47;1.05;;;0.68;;
22287;SDS011;11312;51.464;6.968;2023-03-01T13:33:51;1.42;;;0.80;;
22287;SDS011;11312;51.464;6.968;2023-03-01T13:44:49;2.20;;;1.08;;
22287;SDS011;11312;51.464;6.968;2023-03-01T13:49:57;0.77;;;0.70;;
22287;SDS011;11312;51.464;6.968;2023-03-01T13:52:40;4.15;;;1.30;;
22287;SDS011;11312;51.464;6.968;2023-03-01T13:57:43;2.20;;;1.27;;
22287;SDS011;11312;51.464;6.968;2023-03-01T14:05:29;24.48;;;2.25;;
22287;SDS011;11312;51.464;6.968;2023-03-01T14:07:56;3.40;;;1.50;;
22287;SDS011;11312;51.464;6.968;2023-03-01T14:10:21;3.13;;;1.40;;
22287;SDS011;11312;51.464;6.968;2023-03-01T14:15:27;2.88;;;1.40;;
22287;SDS011;11312;51.464;6.968;2023-03-01T14:20:27;3.47;;;1.52;;
22287;SDS011;11312;51.464;6.968;2023-03-01T14:22:57;2.35;;;1.30;;
22287;SDS011;11312;51.464;6.968;2023-03-01T14:25:26;5.05;;;1.88;;
22287;SDS011;11312;51.464;6.968;2023-03-01T14:28:02;3.40;;;1.70;;
22287;SDS011;11312;51.464;6.968;2023-03-01T14:30:32;2.65;;;1.48;;
22287;SDS011;11312;51.464;6.968;2023-03-01T14:33:02;2.60;;;1.50;;
22287;SDS011;11312;51.464;6.968;2023-03-01T14:35:32;1.80;;;1.20;;
22287;SDS011;11312;51.464;6.968;2023-03-01T14:37:59;3.53;;;1.85;;
22287;SDS011;11312;51.464;6.968;2023-03-01T14:40:30;3.20;;;1.52;;
22287;SDS011;11312;51.464;6.968;2023-03-01T14:43:01;3.13;;;1.52;;
22287;SDS011;11312;51.464;6.968;2023-03-01T14:45:33;3.55;;;1.90;;
22287;SDS011;11312;51.464;6.968;2023-03-01T14:48:00;4.50;;;1.60;;
22287;SDS011;11312;51.464;6.968;2023-03-01T14:50:32;4.40;;;1.90;;
22287;SDS011;11312;51.464;6.968;2023-03-01T14:53:01;3.53;;;1.67;;
22287;SDS011;11312;51.464;6.968;2023-03-01T14:55:31;3.75;;;2.00;;
22287;SDS011;11312;51.464;6.968;2023-03-01T14:58:09;6.00;;;1.88;;
22287;SDS011;11312;51.464;6.968;2023-03-01T15:00:37;2.90;;;1.60;;
22287;SDS011;11312;51.464;6.968;2023-03-01T15:03:13;3.53;;;2.00;;
22287;SDS011;11312;51.464;6.968;2023-03-01T15:05:45;2.35;;;1.40;;
22287;SDS011;11312;51.464;6.968;2023-03-01T15:08:17;3.50;;;1.77;;
22287;SDS011;11312;51.464;6.968;2023-03-01T15:11:31;3.10;;;1.70;;
22287;SDS011;11312;51.464;6.968;2023-03-01T15:13:43;3.05;;;1.58;;
22287;SDS011;11312;51.464;6.968;2023-03-01T15:16:18;3.45;;;1.75;;
22287;SDS011;11312;51.464;6.968;2023-03-01T15:18:49;5.22;;;2.40;;
22287;SDS011;11312;51.464;6.968;2023-03-01T15:21:24;3.15;;;1.60;;
22287;SDS011;11312;51.464;6.968;2023-03-01T15:24:38;3.72;;;1.73;;
22287;SDS011;11312;51.464;6.968;2023-03-01T15:26:45;3.97;;;1.77;;
22287;SDS011;11312;51.464;6.968;2023-03-01T15:29:20;2.85;;;1.52;;
22287;SDS011;11312;51.464;6.968;2023-03-01T15:31:55;3.80;;;1.70;;
22287;SDS011;11312;51.464;6.968;2023-03-01T15:34:25;2.05;;;1.33;;
22287;SDS011;11312;51.464;6.968;2023-03-01T15:37:03;3.13;;;1.55;;
22287;SDS011;11312;51.464;6.968;2023-03-01T15:39:37;3.03;;;1.60;;
22287;SDS011;11312;51.464;6.968;2023-03-01T15:42:09;3.75;;;1.70;;
22287;SDS011;11312;51.464;6.968;2023-03-01T15:45:09;4.70;;;2.05;;
22287;SDS011;11312;51.464;6.968;2023-03-01T15:47:52;3.75;;;1.92;;
22287;SDS011;11312;51.464;6.968;2023-03-01T15:52:52;4.03;;;1.77;;
22287;SDS011;11312;51.464;6.968;2023-03-01T15:55:21;3.95;;;2.05;;
22287;SDS011;11312;51.464;6.968;2023-03-01T15:58:00;5.15;;;2.15;;
22287;SDS011;11312;51.464;6.968;2023-03-01T16:00:30;6.38;;;2.42;;
22287;SDS011;11312;51.464;6.968;2023-03-01T16:02:55;6.45;;;2.15;;
22287;SDS011;11312;51.464;6.968;2023-03-01T16:05:23;4.53;;;2.00;;
22287;SDS011;11312;51.464;6.968;2023-03-01T16:07:50;4.80;;;2.30;;
22287;SDS011;11312;51.464;6.968;2023-03-01T16:10:17;6.20;;;2.17;;
22287;SDS011;11312;51.464;6.968;2023-03-01T16:12:43;4.05;;;1.80;;
22287;SDS011;11312;51.464;6.968;2023-03-01T16:15:28;2.75;;;1.50;;
22287;SDS011;11312;51.464;6.968;2023-03-01T16:17:55;5.13;;;2.05;;
22287;SDS011;11312;51.464;6.968;2023-03-01T16:20:23;3.75;;;1.80;;
22287;SDS011;11312;51.464;6.968;2023-03-01T16:22:49;7.15;;;3.15;;
22287;SDS011;11312;51.464;6.968;2023-03-01T16:25:16;5.28;;;2.17;;
22287;SDS011;11312;51.464;6.968;2023-03-01T16:27:43;6.55;;;2.78;;
22287;SDS011;11312;51.464;6.968;2023-03-01T16:30:14;4.00;;;1.85;;
22287;SDS011;11312;51.464;6.968;2023-03-01T16:32:41;5.40;;;2.25;;
22287;SDS011;11312;51.464;6.968;2023-03-01T16:35:09;3.22;;;1.60;;
22287;SDS011;11312;51.464;6.968;2023-03-01T16:37:36;5.15;;;2.10;;
22287;SDS011;11312;51.464;6.968;2023-03-01T16:40:03;7.45;;;2.00;;
22287;SDS011;11312;51.464;6.968;2023-03-01T16:42:35;8.82;;;2.92;;
22287;SDS011;11312;51.464;6.968;2023-03-01T16:45:01;4.80;;;2.03;;
22287;SDS011;11312;51.464;6.968;2023-03-01T16:47:27;4.57;;;1.98;;
22287;SDS011;11312;51.464;6.968;2023-03-01T16:49:54;5.25;;;2.10;;
22287;SDS011;11312;51.464;6.968;2023-03-01T16:52:20;5.03;;;2.20;;
22287;SDS011;11312;51.464;6.968;2023-03-01T16:54:46;5.47;;;2.38;;
22287;SDS011;11312;51.464;6.968;2023-03-01T16:57:12;3.78;;;1.73;;
22287;SDS011;11312;51.464;6.968;2023-03-01T16:59:38;7.55;;;2.83;;
22287;SDS011;11312;51.464;6.968;2023-03-01T17:02:05;5.05;;;2.25;;
22287;SDS011;11312;51.464;6.968;2023-03-01T17:04:34;6.50;;;2.45;;
22287;SDS011;11312;51.464;6.968;2023-03-01T17:07:00;6.93;;;3.38;;
22287;SDS011;11312;51.464;6.968;2023-03-01T17:09:26;6.22;;;2.65;;
22287;SDS011;11312;51.464;6.968;2023-03-01T17:11:51;4.18;;;2.05;;
22287;SDS011;11312;51.464;6.968;2023-03-01T17:14:17;8.05;;;3.05;;
22287;SDS011;11312;51.464;6.968;2023-03-01T17:16:43;5.90;;;2.58;;
22287;SDS011;11312;51.464;6.968;2023-03-01T17:19:10;9.18;;;3.10;;
22287;SDS011;11312;51.464;6.968;2023-03-01T17:21:37;5.30;;;2.10;;
22287;SDS011;11312;51.464;6.968;2023-03-01T17:24:03;4.88;;;2.30;;
22287;SDS011;11312;51.464;6.968;2023-03-01T17:26:29;6.15;;;2.38;;
22287;SDS011;11312;51.464;6.968;2023-03-01T17:28:55;5.35;;;2.33;;
22287;SDS011;11312;51.464;6.968;2023-03-01T17:31:21;6.35;;;2.78;;
22287;SDS011;11312;51.464;6.968;2023-03-01T17:33:47;6.88;;;2.63;;
22287;SDS011;11312;51.464;6.968;2023-03-01T17:36:14;5.40;;;2.38;;
22287;SDS011;11312;51.464;6.968;2023-03-01T17:38:40;3.70;;;1.83;;
22287;SDS011;11312;51.464;6.968;2023-03-01T17:41:06;7.85;;;2.65;;
22287;SDS011;11312;51.464;6.968;2023-03-01T17:43:32;5.82;;;2.20;;
22287;SDS011;11312;51.464;6.968;2023-03-01T17:45:59;5.30;;;2.17;;
22287;SDS011;11312;51.464;6.968;2023-03-01T17:48:24;7.35;;;3.00;;
22287;SDS011;11312;51.464;6.968;2023-03-01T17:50:50;6.80;;;3.08;;